Time;durP1;ratioP1;P1;durP2;ratioP2;P2;SDS_P1;SDS_P2;PMS_P1;PMS_P2;Temp;Humidity;BMP_temperature;BMP_pressure;BME280_temperature;BME280_humidity;BME280_pressure;Samples;Min_cycle;Max_cycle;Signal;HPM_P1;HPM_P2
2023/01/04 00:02:05;;;;;;;1.30;0.40;;;18.00;64.50;;;;;;5026779;28;45530;-70
2023/01/04 00:04:32;;;;;;;1.70;0.60;;;18.00;64.60;;;;;;5030405;28;45385;-69
2023/01/04 00:07:00;;;;;;;1.25;0.60;;;18.00;64.60;;;;;;5025131;28;45397;-70
2023/01/04 00:09:27;;;;;;;1.98;0.70;;;18.00;64.70;;;;;;5027994;28;45260;-70
2023/01/04 00:11:55;;;;;;;2.47;0.82;;;18.00;64.70;;;;;;5032635;28;45444;-70
2023/01/04 00:14:22;;;;;;;2.03;0.45;;;18.00;64.70;;;;;;5032589;28;45350;-70
2023/01/04 00:16:48;;;;;;;1.67;0.65;;;18.00;64.70;;;;;;5032709;28;45584;-70
2023/01/04 00:19:15;;;;;;;1.92;0.60;;;18.00;64.60;;;;;;5026468;28;45517;-70
2023/01/04 00:21:42;;;;;;;1.38;0.60;;;18.00;64.70;;;;;;5028974;28;46300;-70
2023/01/04 00:24:14;;;;;;;1.50;0.65;;;18.00;64.70;;;;;;5029160;28;45346;-70
2023/01/04 00:26:41;;;;;;;0.88;0.52;;;18.00;64.70;;;;;;5031170;28;45338;-70
2023/01/04 00:29:09;;;;;;;1.17;0.50;;;18.00;64.70;;;;;;5025807;28;45430;-70
2023/01/04 00:31:36;;;;;;;3.30;0.57;;;18.00;64.70;;;;;;5025791;28;47106;-70
2023/01/04 00:34:05;;;;;;;1.20;0.50;;;18.00;64.80;;;;;;5030274;28;45593;-70
2023/01/04 00:36:33;;;;;;;1.70;0.70;;;18.00;64.70;;;;;;5029651;28;45255;-70
2023/01/04 00:39:08;;;;;;;2.95;0.82;;;18.00;64.70;;;;;;5031175;28;45346;-70
2023/01/04 00:41:39;;;;;;;1.00;0.43;;;18.00;64.80;;;;;;5026469;28;45698;-70
2023/01/04 00:44:06;;;;;;;1.05;0.32;;;18.00;64.80;;;;;;5026508;28;45455;-70
2023/01/04 00:46:34;;;;;;;1.73;0.70;;;18.00;64.90;;;;;;5033901;28;45421;-70
2023/01/04 00:49:01;;;;;;;1.23;0.40;;;18.00;64.90;;;;;;5032233;28;45483;-70
2023/01/04 00:51:29;;;;;;;1.67;0.60;;;18.00;64.90;;;;;;5032414;28;45547;-70
2023/01/04 00:53:56;;;;;;;1.27;0.40;;;18.00;64.90;;;;;;5031310;28;45921;-70
2023/01/04 00:56:23;;;;;;;0.55;0.35;;;18.00;64.90;;;;;;5024675;28;45291;-70
2023/01/04 00:58:54;;;;;;;0.85;0.38;;;18.00;65.00;;;;;;5024533;28;45273;-70
2023/01/04 01:01:21;;;;;;;2.60;0.88;;;18.00;65.00;;;;;;5020900;28;45384;-70
2023/01/04 01:03:47;;;;;;;1.92;0.45;;;18.00;65.00;;;;;;5022785;28;45288;-69
2023/01/04 01:06:14;;;;;;;2.03;0.50;;;18.00;65.00;;;;;;5018597;28;45465;-71
2023/01/04 01:08:41;;;;;;;0.93;0.43;;;18.00;65.00;;;;;;5023485;28;45498;-70
2023/01/04 01:11:09;;;;;;;2.33;0.50;;;18.00;65.20;;;;;;5017711;28;45390;-70
2023/01/04 01:13:38;;;;;;;1.63;0.52;;;18.00;65.30;;;;;;5020138;28;45729;-70
2023/01/04 01:16:07;;;;;;;2.17;0.45;;;18.00;65.30;;;;;;5019459;28;45414;-70
2023/01/04 01:18:35;;;;;;;1.23;0.50;;;18.00;65.40;;;;;;5022789;28;45488;-70
2023/01/04 01:21:05;;;;;;;1.25;0.40;;;18.00;65.40;;;;;;5018928;28;45489;-70
2023/01/04 01:23:32;;;;;;;3.97;0.52;;;18.00;65.50;;;;;;5020104;28;45365;-70
2023/01/04 01:26:00;;;;;;;1.27;0.50;;;18.00;65.40;;;;;;5013934;28;45352;-71
2023/01/04 01:28:27;;;;;;;2.08;0.70;;;18.00;65.50;;;;;;5014743;28;45560;-70
2023/01/04 01:30:54;;;;;;;1.35;0.40;;;17.90;65.50;;;;;;5022751;28;45413;-70
2023/01/04 01:33:23;;;;;;;2.58;0.57;;;17.90;65.60;;;;;;5023316;28;45276;-71
2023/01/04 01:35:50;;;;;;;2.67;0.50;;;17.90;65.60;;;;;;5017514;28;45334;-70
2023/01/04 01:38:17;;;;;;;1.42;0.50;;;18.00;65.70;;;;;;5023788;28;45196;-70
2023/01/04 01:40:44;;;;;;;1.40;0.40;;;18.00;65.70;;;;;;5021971;28;45463;-70
2023/01/04 01:43:17;;;;;;;1.38;0.40;;;18.00;65.80;;;;;;5023237;28;45346;-70
2023/01/04 01:45:46;;;;;;;2.42;0.77;;;18.00;65.80;;;;;;5023133;28;45239;-71
2023/01/04 01:48:18;;;;;;;2.15;0.40;;;18.00;65.70;;;;;;5022491;28;45549;-70
2023/01/04 01:50:50;;;;;;;1.50;0.60;;;18.00;65.90;;;;;;5022438;28;47222;-71
2023/01/04 01:53:17;;;;;;;1.42;0.47;;;18.00;65.80;;;;;;5022806;28;45416;-70
2023/01/04 01:55:45;;;;;;;2.95;0.68;;;18.00;65.90;;;;;;5023264;28;45527;-70
2023/01/04 01:58:18;;;;;;;2.25;0.45;;;18.00;65.90;;;;;;5016310;28;45428;-71
2023/01/04 02:00:44;;;;;;;1.50;0.30;;;18.00;66.10;;;;;;5012371;28;46547;-70
2023/01/04 02:03:16;;;;;;;1.02;0.20;;;18.00;65.90;;;;;;5021435;28;45355;-70
2023/01/04 02:05:44;;;;;;;0.40;0.30;;;18.00;65.90;;;;;;5011608;28;45467;-70
2023/01/04 02:08:14;;;;;;;0.68;0.30;;;18.00;66.00;;;;;;5021422;28;45374;-70
2023/01/04 02:10:41;;;;;;;0.73;0.40;;;18.00;66.00;;;;;;5020636;28;45337;-70
2023/01/04 02:13:11;;;;;;;0.55;0.40;;;18.00;66.00;;;;;;5022637;28;45669;-70
2023/01/04 02:15:49;;;;;;;1.00;0.45;;;18.00;66.00;;;;;;5022066;28;45440;-71
2023/01/04 02:18:21;;;;;;;1.95;0.50;;;18.00;66.10;;;;;;5022789;28;45498;-70
2023/01/04 02:20:52;;;;;;;0.57;0.30;;;18.00;66.10;;;;;;5022364;28;45524;-70
2023/01/04 02:24:06;;;;;;;1.80;0.50;;;18.00;66.20;;;;;;5021607;28;45331;-70
2023/01/04 02:27:03;;;;;;;1.95;0.50;;;18.00;66.30;;;;;;4971001;28;45255;-70
2023/01/04 02:30:06;;;;;;;0.85;0.40;;;18.00;66.40;;;;;;5022092;28;45404;-70
2023/01/04 02:32:46;;;;;;;1.08;0.40;;;18.00;66.40;;;;;;5006106;28;47494;-70
2023/01/04 02:35:21;;;;;;;0.60;0.40;;;18.00;66.60;;;;;;5022264;28;45312;-70
2023/01/04 02:37:58;;;;;;;0.70;0.50;;;18.00;66.50;;;;;;5011463;28;45493;-70
2023/01/04 02:40:33;;;;;;;1.52;0.43;;;18.00;66.60;;;;;;5021268;28;45323;-70
2023/01/04 02:45:55;;;;;;;0.93;0.32;;;18.00;67.80;;;;;;5022461;28;45357;-70
2023/01/04 02:51:26;;;;;;;0.40;0.20;;;18.00;66.80;;;;;;5022206;28;45374;-70
2023/01/04 02:53:53;;;;;;;0.52;0.40;;;18.00;67.00;;;;;;5022751;28;45259;-70
2023/01/04 02:56:35;;;;;;;1.33;0.40;;;18.00;66.80;;;;;;5021598;28;45273;-71
2023/01/04 02:59:18;;;;;;;2.83;0.38;;;18.00;66.90;;;;;;5017679;28;45532;-70
2023/01/04 03:07:44;;;;;;;1.02;0.30;;;18.10;67.00;;;;;;5021540;28;45584;-71
2023/01/04 03:10:17;;;;;;;1.40;0.50;;;18.00;67.00;;;;;;5020571;28;45642;-70
2023/01/04 03:12:49;;;;;;;0.98;0.30;;;18.00;67.00;;;;;;5024200;28;45436;-70
2023/01/04 03:15:20;;;;;;;1.08;0.30;;;18.00;67.00;;;;;;5024762;28;45345;-70
2023/01/04 03:17:52;;;;;;;0.70;0.40;;;18.00;67.10;;;;;;5025600;28;45378;-70
2023/01/04 03:20:21;;;;;;;0.98;0.40;;;18.10;67.10;;;;;;5022422;28;45502;-71
2023/01/04 03:37:07;;;;;;;0.65;0.40;;;18.00;67.20;;;;;;4987862;28;46110;-71
2023/01/04 03:48:30;;;;;;;0.57;0.17;;;18.00;67.50;;;;;;5024631;28;45828;-70
2023/01/04 03:51:07;;;;;;;0.40;0.10;;;18.00;67.50;;;;;;5024025;28;45591;-71
2023/01/04 03:53:42;;;;;;;1.10;0.30;;;18.00;67.60;;;;;;5025309;28;45216;-70
2023/01/04 03:56:12;;;;;;;0.20;0.20;;;18.00;67.50;;;;;;5024019;28;45519;-70
2023/01/04 03:58:39;;;;;;;0.68;0.30;;;18.00;67.60;;;;;;5017872;28;46077;-70
2023/01/04 04:01:07;;;;;;;0.85;0.20;;;18.00;67.60;;;;;;5023401;28;45452;-70
2023/01/04 04:09:04;;;;;;;2.53;0.30;;;18.00;67.60;;;;;;5004957;28;45436;-71
2023/01/04 04:11:31;;;;;;;0.47;0.20;;;18.10;67.70;;;;;;5024435;28;45263;-70
2023/01/04 04:13:59;;;;;;;0.45;0.30;;;18.00;67.70;;;;;;5024983;28;45486;-70
2023/01/04 04:16:27;;;;;;;0.90;0.20;;;18.10;67.70;;;;;;5024813;28;45266;-70
2023/01/04 04:18:53;;;;;;;0.43;0.10;;;18.00;67.50;;;;;;5024010;28;47633;-71
2023/01/04 04:21:20;;;;;;;0.65;0.13;;;18.00;67.30;;;;;;5023570;28;45381;-70
2023/01/04 04:23:47;;;;;;;0.50;0.28;;;18.00;67.30;;;;;;5022972;28;45450;-71
2023/01/04 04:26:15;;;;;;;0.30;0.20;;;18.00;67.40;;;;;;5024456;28;45448;-70
2023/01/04 04:28:43;;;;;;;0.20;0.10;;;18.00;67.50;;;;;;5019906;28;45473;-70
2023/01/04 04:31:10;;;;;;;1.02;0.15;;;18.10;67.60;;;;;;5023481;28;45395;-70
2023/01/04 04:33:36;;;;;;;0.43;0.28;;;18.00;67.50;;;;;;5024223;28;45435;-70
2023/01/04 04:36:03;;;;;;;0.68;0.10;;;18.00;67.40;;;;;;5023941;28;45341;-70
2023/01/04 04:38:30;;;;;;;0.20;0.10;;;18.00;67.30;;;;;;5023873;28;46308;-71
2023/01/04 04:43:43;;;;;;;0.10;0.10;;;18.00;67.30;;;;;;5024168;28;45345;-71
2023/01/04 04:46:10;;;;;;;0.10;0.08;;;18.00;67.40;;;;;;5024522;28;45366;-70
2023/01/04 04:48:36;;;;;;;0.20;0.20;;;18.00;67.50;;;;;;5023739;28;46598;-70
2023/01/04 04:51:03;;;;;;;0.43;0.20;;;18.00;67.60;;;;;;5024196;28;45351;-71
2023/01/04 04:53:30;;;;;;;0.35;0.20;;;18.00;67.60;;;;;;5024347;28;45337;-71
2023/01/04 04:55:57;;;;;;;0.15;0.10;;;18.00;67.60;;;;;;5024526;28;45566;-70
2023/01/04 04:58:24;;;;;;;0.38;0.25;;;18.00;67.40;;;;;;5023629;28;46612;-71
2023/01/04 05:00:52;;;;;;;0.35;0.10;;;18.00;67.30;;;;;;5022609;28;45382;-71
2023/01/04 05:03:19;;;;;;;0.00;0.00;;;18.00;67.50;;;;;;5024126;28;45464;-70
2023/01/04 05:05:45;;;;;;;0.10;0.10;;;18.00;67.60;;;;;;5023732;28;45387;-70
2023/01/04 05:08:12;;;;;;;0.65;0.10;;;18.00;67.60;;;;;;5023279;28;47539;-71
2023/01/04 05:10:39;;;;;;;0.15;0.10;;;18.00;68.00;;;;;;5021592;28;45267;-70
2023/01/04 05:13:07;;;;;;;1.17;0.45;;;18.00;67.70;;;;;;5024077;28;45426;-70
2023/01/04 05:15:36;;;;;;;1.55;0.20;;;18.00;67.70;;;;;;5023592;28;45466;-71
2023/01/04 05:18:06;;;;;;;0.38;0.15;;;18.00;67.80;;;;;;5023764;28;46140;-70
2023/01/04 05:20:33;;;;;;;0.20;0.10;;;18.00;67.80;;;;;;5023586;28;45274;-70
2023/01/04 05:23:00;;;;;;;0.22;0.10;;;18.00;67.80;;;;;;5022360;28;45378;-71
2023/01/04 05:25:27;;;;;;;0.45;0.10;;;18.00;67.70;;;;;;5023330;28;45235;-71
2023/01/04 05:27:54;;;;;;;0.20;0.20;;;18.00;67.70;;;;;;5022829;28;47960;-71
2023/01/04 05:33:07;;;;;;;0.00;0.00;;;18.00;67.70;;;;;;5023168;28;45322;-71
2023/01/04 05:35:34;;;;;;;0.00;0.00;;;18.00;67.70;;;;;;5022757;28;45314;-71
2023/01/04 05:38:01;;;;;;;0.30;0.13;;;18.00;67.70;;;;;;5022529;28;45405;-71
2023/01/04 05:40:29;;;;;;;0.00;0.00;;;18.00;67.70;;;;;;5022103;28;45357;-71
2023/01/04 05:42:56;;;;;;;0.20;0.10;;;18.00;67.80;;;;;;5022887;28;45359;-71
2023/01/04 05:45:23;;;;;;;0.15;0.10;;;18.00;67.80;;;;;;5022979;28;45240;-71
2023/01/04 05:47:50;;;;;;;0.47;0.20;;;18.00;67.80;;;;;;5023043;28;48667;-71
2023/01/04 05:50:19;;;;;;;0.45;0.10;;;18.00;67.90;;;;;;5021496;28;45879;-71
2023/01/04 05:52:46;;;;;;;0.10;0.03;;;18.00;67.80;;;;;;5022199;28;45271;-72
2023/01/04 05:55:13;;;;;;;0.22;0.10;;;18.00;67.70;;;;;;5023314;28;45852;-70
2023/01/04 05:57:40;;;;;;;0.25;0.15;;;18.00;67.60;;;;;;5016884;28;47322;-70
2023/01/04 06:00:08;;;;;;;0.22;0.10;;;18.00;67.50;;;;;;5022599;28;45295;-70
2023/01/04 06:02:35;;;;;;;0.17;0.03;;;17.90;67.30;;;;;;5022167;28;45411;-70
2023/01/04 06:05:02;;;;;;;0.52;0.10;;;17.90;67.20;;;;;;5021722;28;45413;-70
2023/01/04 06:07:30;;;;;;;0.20;0.20;;;18.00;67.40;;;;;;5023109;28;47371;-69
2023/01/04 06:09:57;;;;;;;0.08;0.00;;;18.00;67.50;;;;;;5020915;28;45424;-69
2023/01/04 06:12:24;;;;;;;0.20;0.10;;;18.00;67.50;;;;;;5021629;28;45297;-69
2023/01/04 06:14:51;;;;;;;0.30;0.10;;;18.00;67.70;;;;;;5012534;28;45350;-69
2023/01/04 06:17:18;;;;;;;0.32;0.03;;;18.00;67.60;;;;;;5028779;28;47527;-70
2023/01/04 06:19:45;;;;;;;0.10;0.10;;;18.00;67.80;;;;;;5022561;28;45612;-70
2023/01/04 06:22:11;;;;;;;0.70;0.20;;;18.00;67.90;;;;;;5021335;28;45381;-69
2023/01/04 06:24:39;;;;;;;0.03;0.00;;;17.90;67.90;;;;;;5022182;28;45436;-70
2023/01/04 06:27:06;;;;;;;0.15;0.00;;;17.90;68.00;;;;;;5021202;28;45463;-69
2023/01/04 06:29:33;;;;;;;0.00;0.00;;;17.90;68.20;;;;;;5021859;28;45357;-70
2023/01/04 06:32:00;;;;;;;0.40;0.10;;;18.00;68.20;;;;;;5019461;28;45631;-70
2023/01/04 06:34:26;;;;;;;0.43;0.20;;;18.00;68.20;;;;;;5020070;28;45402;-70
2023/01/04 06:36:53;;;;;;;0.20;0.10;;;18.00;68.20;;;;;;5022360;28;45461;-69
2023/01/04 06:39:20;;;;;;;0.20;0.10;;;18.00;68.20;;;;;;5022243;28;45362;-71
2023/01/04 06:41:48;;;;;;;0.25;0.10;;;18.00;68.20;;;;;;5021755;28;45372;-70
2023/01/04 06:44:15;;;;;;;0.20;0.10;;;18.00;68.30;;;;;;5021902;28;45488;-70
2023/01/04 06:46:42;;;;;;;0.40;0.20;;;18.00;68.20;;;;;;5021592;28;46095;-70
2023/01/04 06:49:09;;;;;;;0.20;0.10;;;18.00;68.40;;;;;;5022502;28;45335;-71
2023/01/04 06:51:35;;;;;;;0.20;0.17;;;18.00;68.30;;;;;;5024988;28;45306;-70
2023/01/04 06:54:02;;;;;;;0.03;0.00;;;18.00;68.20;;;;;;5026350;28;45420;-70
2023/01/04 06:56:29;;;;;;;0.47;0.10;;;18.00;69.10;;;;;;5021983;28;46606;-70
2023/01/04 06:58:57;;;;;;;1.33;0.15;;;18.00;68.10;;;;;;5021498;28;45490;-70
2023/01/04 07:01:24;;;;;;;0.20;0.10;;;18.00;68.10;;;;;;5021507;28;45357;-70
2023/01/04 07:03:51;;;;;;;0.20;0.10;;;17.90;68.00;;;;;;5026955;28;45597;-70
2023/01/04 07:06:18;;;;;;;0.30;0.13;;;17.90;68.10;;;;;;5021952;28;47084;-70
2023/01/04 07:08:44;;;;;;;0.22;0.20;;;17.80;68.00;;;;;;5019340;28;45535;-70
2023/01/04 07:11:11;;;;;;;0.10;0.10;;;17.80;68.00;;;;;;5021091;28;45453;-70
2023/01/04 07:13:38;;;;;;;0.17;0.10;;;17.80;68.20;;;;;;5020855;28;45517;-69
2023/01/04 07:16:07;;;;;;;0.98;0.10;;;17.80;68.20;;;;;;5019908;28;45269;-70
2023/01/04 07:18:33;;;;;;;0.60;0.10;;;17.80;68.30;;;;;;5020884;28;45377;-69
2023/01/04 07:21:00;;;;;;;0.43;0.10;;;17.80;68.50;;;;;;5020312;28;45474;-70
2023/01/04 07:23:27;;;;;;;0.65;0.20;;;17.80;68.60;;;;;;5020232;28;45462;-70
2023/01/04 07:25:54;;;;;;;0.57;0.10;;;17.80;68.60;;;;;;5020220;28;46357;-70
2023/01/04 07:31:06;;;;;;;0.05;0.05;;;17.80;68.90;;;;;;5017305;28;45499;-69
2023/01/04 07:33:33;;;;;;;0.10;0.10;;;17.80;69.20;;;;;;5021114;28;45489;-70
2023/01/04 07:36:05;;;;;;;0.10;0.10;;;17.80;69.10;;;;;;5017696;28;46978;-69
2023/01/04 07:38:32;;;;;;;0.43;0.10;;;17.80;69.10;;;;;;5014924;28;45808;-69
2023/01/04 07:40:59;;;;;;;0.20;0.13;;;17.80;69.20;;;;;;5020505;28;45362;-70
2023/01/04 07:43:26;;;;;;;1.08;0.28;;;17.80;69.20;;;;;;5021941;28;45589;-70
2023/01/04 07:45:52;;;;;;;0.05;0.05;;;17.90;69.30;;;;;;5021167;28;46264;-70
2023/01/04 07:48:21;;;;;;;0.30;0.20;;;17.90;69.20;;;;;;5021717;28;45793;-69
2023/01/04 07:50:48;;;;;;;1.63;0.00;;;17.90;69.20;;;;;;5021493;28;45413;-70
2023/01/04 07:53:15;;;;;;;0.95;0.10;;;17.90;70.30;;;;;;5021873;28;45524;-70
2023/01/04 07:55:42;;;;;;;0.35;0.10;;;17.90;69.20;;;;;;5020970;28;46564;-70
2023/01/04 07:58:09;;;;;;;0.55;0.10;;;17.90;69.20;;;;;;5021952;28;45472;-70
2023/01/04 08:00:36;;;;;;;0.30;0.10;;;17.90;69.20;;;;;;5025288;28;45327;-70
2023/01/04 08:03:02;;;;;;;0.28;0.10;;;17.90;69.20;;;;;;5024476;28;45270;-70
2023/01/04 08:05:33;;;;;;;0.47;0.15;;;18.00;69.20;;;;;;5024926;28;48022;-70
2023/01/04 08:08:00;;;;;;;0.57;0.20;;;18.00;69.40;;;;;;5024759;28;45371;-71
2023/01/04 08:10:27;;;;;;;0.47;0.10;;;18.00;69.40;;;;;;5024537;28;45316;-70
2023/01/04 08:12:54;;;;;;;0.63;0.15;;;18.00;69.60;;;;;;5024245;28;45342;-69
2023/01/04 08:15:21;;;;;;;0.10;0.10;;;17.90;69.60;;;;;;5024558;28;46817;-70
2023/01/04 08:17:48;;;;;;;0.57;0.10;;;17.90;69.50;;;;;;5025331;28;45484;-70
2023/01/04 08:20:15;;;;;;;0.20;0.08;;;17.90;69.40;;;;;;5036476;28;45419;-70
2023/01/04 08:22:43;;;;;;;0.00;0.00;;;17.90;69.30;;;;;;5024366;28;45594;-69
2023/01/04 08:25:10;;;;;;;0.10;0.10;;;17.90;69.20;;;;;;5024264;28;48282;-70
2023/01/04 08:27:37;;;;;;;0.45;0.13;;;17.90;69.10;;;;;;5024274;28;45345;-70
2023/01/04 08:30:04;;;;;;;0.30;0.20;;;17.90;69.00;;;;;;5024626;28;45319;-70
2023/01/04 08:32:31;;;;;;;0.45;0.15;;;17.90;68.90;;;;;;5025175;28;45598;-69
2023/01/04 08:34:58;;;;;;;0.20;0.10;;;17.90;68.90;;;;;;5025254;28;48306;-69
2023/01/04 08:37:25;;;;;;;0.20;0.10;;;17.90;68.80;;;;;;5025109;28;45540;-70
2023/01/04 08:39:53;;;;;;;2.72;0.35;;;17.90;68.70;;;;;;5024211;28;45406;-70
2023/01/04 08:42:20;;;;;;;0.90;0.20;;;17.90;68.80;;;;;;5024615;28;45321;-69
2023/01/04 08:44:47;;;;;;;0.90;0.03;;;18.00;68.90;;;;;;5025217;28;46598;-69
2023/01/04 08:47:14;;;;;;;0.47;0.15;;;18.00;68.70;;;;;;5024924;28;45492;-69
2023/01/04 08:49:40;;;;;;;1.30;0.15;;;18.00;68.70;;;;;;5025390;28;45370;-69
2023/01/04 08:52:08;;;;;;;1.10;0.57;;;18.00;68.70;;;;;;5024725;28;45540;-69
2023/01/04 08:54:35;;;;;;;4.82;0.30;;;18.00;68.80;;;;;;5023363;28;46326;-69
2023/01/04 08:57:04;;;;;;;0.60;0.30;;;18.00;68.80;;;;;;5024977;28;45314;-70
2023/01/04 08:59:30;;;;;;;0.40;0.10;;;18.10;69.00;;;;;;5024115;28;45306;-69
2023/01/04 09:01:57;;;;;;;0.32;0.10;;;18.10;69.00;;;;;;5023070;28;45337;-69
2023/01/04 09:04:24;;;;;;;1.48;0.22;;;18.10;69.10;;;;;;5023958;28;46552;-70
2023/01/04 09:06:51;;;;;;;1.98;0.20;;;18.10;69.10;;;;;;5024119;28;45362;-70
2023/01/04 09:09:17;;;;;;;2.08;0.20;;;18.10;69.10;;;;;;5023587;28;45234;-69
2023/01/04 09:11:44;;;;;;;0.47;0.10;;;18.10;69.30;;;;;;5022133;28;45453;-70
2023/01/04 09:14:12;;;;;;;0.88;0.10;;;18.10;69.40;;;;;;5021042;28;47390;-70
2023/01/04 09:16:39;;;;;;;0.40;0.25;;;18.10;69.30;;;;;;5018759;28;45511;-69
2023/01/04 09:19:06;;;;;;;0.15;0.10;;;18.00;69.40;;;;;;5022179;28;45383;-70
2023/01/04 09:21:33;;;;;;;0.22;0.10;;;18.00;69.60;;;;;;5024094;28;45281;-70
2023/01/04 09:24:00;;;;;;;0.10;0.10;;;18.00;70.00;;;;;;5021594;28;45469;-70
2023/01/04 09:26:27;;;;;;;1.58;0.20;;;18.00;70.00;;;;;;5020017;28;45420;-70
2023/01/04 09:28:55;;;;;;;1.27;0.30;;;18.00;70.00;;;;;;5020206;28;45450;-70
2023/01/04 09:31:25;;;;;;;0.45;0.17;;;18.00;70.00;;;;;;5020312;28;45260;-69
2023/01/04 09:33:52;;;;;;;1.42;0.10;;;17.90;70.00;;;;;;5024483;28;47458;-69
2023/01/04 09:36:20;;;;;;;0.10;0.10;;;17.90;70.00;;;;;;5024469;28;45367;-70
2023/01/04 09:38:48;;;;;;;0.65;0.10;;;18.00;70.00;;;;;;5023829;28;45507;-70
2023/01/04 09:41:22;;;;;;;0.10;0.10;;;17.90;70.10;;;;;;5023970;28;45255;-69
2023/01/04 09:43:51;;;;;;;0.35;0.20;;;18.00;70.10;;;;;;5024959;28;45444;-70
2023/01/04 09:46:30;;;;;;;0.32;0.20;;;18.00;70.00;;;;;;5024383;28;45298;-69
2023/01/04 09:49:11;;;;;;;0.25;0.20;;;18.00;70.00;;;;;;5024686;28;45224;-69
2023/01/04 09:51:43;;;;;;;0.43;0.10;;;18.00;69.90;;;;;;5024150;28;45271;-70
2023/01/04 09:54:15;;;;;;;0.10;0.05;;;18.00;70.00;;;;;;5024530;28;45587;-70
2023/01/04 09:56:52;;;;;;;1.75;0.32;;;18.10;70.00;;;;;;5024792;28;45189;-69
2023/01/04 09:59:27;;;;;;;0.10;0.10;;;18.10;70.00;;;;;;5024632;28;45200;-69
2023/01/04 10:01:59;;;;;;;0.20;0.00;;;18.00;69.90;;;;;;5023949;28;45413;-69
2023/01/04 10:04:35;;;;;;;0.45;0.22;;;18.10;70.00;;;;;;5024382;28;47088;-70
2023/01/04 10:07:02;;;;;;;2.00;0.20;;;18.10;70.00;;;;;;5022730;28;45460;-70
2023/01/04 10:09:29;;;;;;;1.10;0.20;;;18.10;70.00;;;;;;5024294;28;45216;-70
2023/01/04 10:12:10;;;;;;;0.47;0.20;;;18.10;70.00;;;;;;5024178;28;45220;-70
2023/01/04 10:14:50;;;;;;;0.20;0.10;;;18.10;70.00;;;;;;5024153;28;45258;-70
2023/01/04 10:17:34;;;;;;;0.73;0.20;;;18.10;70.10;;;;;;5024409;28;45385;-70
2023/01/04 10:20:16;;;;;;;0.10;0.10;;;18.10;70.10;;;;;;5024900;28;45263;-70
2023/01/04 10:22:51;;;;;;;0.40;0.30;;;18.10;70.20;;;;;;5022609;28;45385;-69
2023/01/04 10:25:26;;;;;;;0.20;0.08;;;18.10;70.20;;;;;;5023943;28;45509;-70
2023/01/04 10:28:05;;;;;;;1.83;0.20;;;18.10;70.20;;;;;;5024204;28;45417;-70
2023/01/04 10:30:40;;;;;;;0.15;0.13;;;18.00;70.30;;;;;;5024305;28;45357;-70
2023/01/04 10:33:12;;;;;;;1.30;0.50;;;18.10;70.30;;;;;;5021893;28;45319;-70
2023/01/04 10:35:42;;;;;;;0.30;0.10;;;18.00;70.40;;;;;;5024224;28;45443;-70
2023/01/04 10:38:15;;;;;;;0.95;0.30;;;18.00;70.50;;;;;;5022668;28;45374;-70
2023/01/04 10:40:45;;;;;;;0.20;0.10;;;18.00;70.50;;;;;;5024278;28;45421;-69
2023/01/04 10:43:22;;;;;;;0.25;0.17;;;18.00;70.50;;;;;;5024191;28;45160;-69
2023/01/04 10:45:56;;;;;;;0.10;0.10;;;18.00;70.60;;;;;;5020618;28;46227;-69
2023/01/04 10:48:32;;;;;;;1.95;0.20;;;18.00;70.70;;;;;;5023656;28;45621;-69
2023/01/04 10:51:00;;;;;;;1.45;0.20;;;18.00;70.60;;;;;;5024323;28;45415;-69
2023/01/04 10:53:33;;;;;;;0.22;0.10;;;18.00;70.70;;;;;;5023263;28;45279;-70
2023/01/04 10:56:04;;;;;;;1.38;0.30;;;18.00;70.70;;;;;;5023807;28;45285;-69
2023/01/04 10:58:37;;;;;;;0.30;0.15;;;18.10;70.70;;;;;;5023694;28;45606;-70
2023/01/04 11:01:08;;;;;;;0.85;0.20;;;18.10;70.70;;;;;;5023902;28;45373;-71
2023/01/04 11:03:41;;;;;;;0.85;0.10;;;18.10;70.80;;;;;;5020767;28;45233;-69
2023/01/04 11:06:16;;;;;;;0.20;0.15;;;18.10;70.80;;;;;;5023632;28;45299;-69
2023/01/04 11:08:47;;;;;;;0.10;0.10;;;18.10;70.80;;;;;;5023318;28;45235;-69
2023/01/04 11:11:20;;;;;;;0.45;0.10;;;18.10;70.80;;;;;;5023328;28;45200;-70
2023/01/04 11:13:48;;;;;;;0.77;0.20;;;18.10;70.80;;;;;;5023667;28;45234;-70
2023/01/04 11:16:15;;;;;;;0.20;0.10;;;18.10;70.80;;;;;;5023711;28;47101;-70
2023/01/04 11:18:46;;;;;;;1.02;0.13;;;18.10;70.80;;;;;;5023231;28;45269;-70
2023/01/04 11:21:15;;;;;;;0.52;0.20;;;18.10;71.00;;;;;;5023190;28;45510;-70
2023/01/04 11:23:42;;;;;;;0.22;0.20;;;18.10;71.10;;;;;;5023444;28;45324;-70
2023/01/04 11:26:14;;;;;;;0.55;0.10;;;18.10;71.00;;;;;;5022608;28;46265;-70
2023/01/04 11:28:47;;;;;;;0.60;0.10;;;18.10;71.10;;;;;;5023307;28;45422;-69
2023/01/04 11:31:21;;;;;;;0.73;0.20;;;18.10;71.20;;;;;;5021772;28;45531;-70
2023/01/04 11:33:55;;;;;;;0.17;0.17;;;18.10;71.20;;;;;;5025149;28;45712;-70
2023/01/04 11:36:34;;;;;;;0.60;0.10;;;18.10;71.20;;;;;;5026690;28;48427;-69
2023/01/04 11:39:02;;;;;;;0.10;0.10;;;18.10;71.30;;;;;;5025730;28;45362;-70
2023/01/04 11:41:29;;;;;;;0.47;0.13;;;18.10;71.40;;;;;;5024649;28;45382;-70
2023/01/04 11:43:58;;;;;;;0.30;0.20;;;18.00;71.40;;;;;;5025958;28;45278;-70
2023/01/04 11:46:26;;;;;;;0.70;0.47;;;18.00;71.40;;;;;;5025019;28;46076;-70
2023/01/04 11:48:54;;;;;;;0.10;0.10;;;18.10;71.50;;;;;;5025419;28;45267;-70
2023/01/04 11:51:36;;;;;;;0.40;0.20;;;18.00;71.50;;;;;;5024954;28;45354;-70
2023/01/04 11:54:05;;;;;;;1.13;0.10;;;18.10;71.50;;;;;;5010740;28;45329;-70
2023/01/04 11:56:33;;;;;;;0.43;0.05;;;18.10;71.60;;;;;;5005508;28;45370;-70
2023/01/04 11:59:06;;;;;;;0.43;0.13;;;18.10;71.50;;;;;;5005074;28;45462;-69
2023/01/04 12:01:35;;;;;;;0.10;0.10;;;18.10;71.50;;;;;;5006492;28;45551;-70
2023/01/04 12:04:09;;;;;;;0.35;0.20;;;18.10;71.60;;;;;;5006732;28;45232;-70
2023/01/04 12:06:40;;;;;;;1.13;0.43;;;18.10;71.50;;;;;;5005371;28;45488;-70
2023/01/04 12:09:13;;;;;;;0.70;0.25;;;18.10;71.50;;;;;;5003393;28;45402;-70
2023/01/04 12:11:43;;;;;;;0.28;0.10;;;18.10;71.50;;;;;;5005986;28;45351;-70
2023/01/04 12:14:19;;;;;;;0.90;0.20;;;18.10;71.50;;;;;;5006834;28;45332;-70
2023/01/04 12:16:56;;;;;;;0.85;0.20;;;18.10;71.50;;;;;;5004998;28;45266;-70
2023/01/04 12:19:25;;;;;;;0.55;0.13;;;18.10;71.60;;;;;;5023945;28;45189;-70
2023/01/04 12:21:55;;;;;;;0.20;0.20;;;18.10;71.60;;;;;;5024923;28;45327;-70
2023/01/04 12:24:24;;;;;;;0.28;0.10;;;18.10;71.60;;;;;;5026189;28;45246;-70
2023/01/04 12:26:52;;;;;;;0.25;0.10;;;18.10;71.70;;;;;;5025610;28;45426;-71
2023/01/04 12:29:45;;;;;;;0.17;0.13;;;18.10;71.70;;;;;;5025491;28;45345;-70
2023/01/04 12:32:41;;;;;;;1.17;0.28;;;18.10;71.80;;;;;;5021700;28;45208;-70
2023/01/04 12:36:03;;;;;;;0.30;0.20;;;18.10;71.90;;;;;;5016941;28;45608;-70
2023/01/04 12:39:27;;;;;;;0.40;0.20;;;18.10;71.90;;;;;;5016066;28;45489;-70
2023/01/04 12:42:22;;;;;;;0.05;0.05;;;18.10;72.10;;;;;;5018660;28;45507;-70
2023/01/04 12:45:09;;;;;;;0.20;0.20;;;18.10;73.20;;;;;;5022108;28;45405;-70
2023/01/04 12:50:26;;;;;;;0.20;0.10;;;18.10;72.30;;;;;;5011302;28;45732;-70
2023/01/04 12:52:54;;;;;;;0.85;0.10;;;18.10;72.40;;;;;;5021768;28;45371;-70
2023/01/04 12:55:58;;;;;;;0.00;0.00;;;18.10;72.30;;;;;;5024858;28;45341;-69
2023/01/04 12:59:07;;;;;;;0.25;0.10;;;18.10;72.30;;;;;;5024765;28;45321;-69
2023/01/04 13:01:34;;;;;;;0.30;0.08;;;18.10;72.20;;;;;;5024211;28;45390;-70
2023/01/04 13:04:04;;;;;;;0.45;0.10;;;18.10;72.20;;;;;;5024046;28;45524;-70
2023/01/04 13:06:36;;;;;;;0.22;0.15;;;18.10;72.30;;;;;;5024608;28;45208;-70
2023/01/04 13:09:03;;;;;;;0.00;0.00;;;18.10;72.20;;;;;;5024108;28;45410;-70
2023/01/04 13:12:01;;;;;;;0.00;0.00;;;18.10;72.30;;;;;;5023105;28;46140;-70
2023/01/04 13:14:34;;;;;;;0.17;0.10;;;18.10;72.20;;;;;;5022998;28;46173;-70
2023/01/04 13:17:17;;;;;;;0.22;0.10;;;18.10;72.30;;;;;;5024327;28;45286;-70
2023/01/04 13:19:45;;;;;;;0.60;0.20;;;18.10;72.30;;;;;;5023378;28;45496;-70
2023/01/04 13:22:21;;;;;;;0.20;0.13;;;18.10;72.30;;;;;;5023013;28;46827;-70
2023/01/04 13:24:50;;;;;;;0.45;0.00;;;18.20;72.40;;;;;;5022946;28;45933;-70
2023/01/04 13:27:20;;;;;;;0.10;0.10;;;18.10;72.40;;;;;;5023427;28;45377;-70
2023/01/04 13:29:49;;;;;;;0.20;0.10;;;18.10;72.50;;;;;;5023473;28;45645;-70
2023/01/04 13:32:22;;;;;;;0.50;0.10;;;18.10;72.60;;;;;;5021205;28;46288;-69
2023/01/04 13:34:54;;;;;;;0.30;0.10;;;18.10;72.60;;;;;;5022539;28;45442;-70
2023/01/04 13:37:28;;;;;;;0.00;0.00;;;18.10;72.70;;;;;;5019143;28;45430;-70
2023/01/04 13:40:20;;;;;;;0.30;0.10;;;18.10;72.70;;;;;;5023072;28;45307;-70
2023/01/04 13:42:50;;;;;;;0.10;0.00;;;18.10;72.80;;;;;;5007089;28;46290;-70
2023/01/04 13:45:34;;;;;;;0.10;0.10;;;18.10;72.80;;;;;;5023049;28;45439;-71
2023/01/04 13:48:03;;;;;;;0.13;0.10;;;18.00;72.80;;;;;;5023577;28;45298;-70
2023/01/04 13:50:34;;;;;;;0.10;0.10;;;18.00;72.80;;;;;;5022973;28;45318;-69
2023/01/04 13:53:01;;;;;;;0.10;0.10;;;18.00;72.90;;;;;;5004863;28;46065;-70
2023/01/04 13:55:30;;;;;;;0.10;0.00;;;18.00;72.90;;;;;;5018349;28;45577;-70
2023/01/04 13:57:59;;;;;;;0.05;0.05;;;18.00;72.90;;;;;;5022111;28;45479;-70